Time;durP1;ratioP1;P1;durP2;ratioP2;P2;SDS_P1;SDS_P2;PMS_P1;PMS_P2;Temp;Humidity;BMP_temperature;BMP_pressure;BME280_temperature;BME280_humidity;BME280_pressure;Samples;Min_cycle;Max_cycle;Signal;HPM_P1;HPM_P2
2022/06/11 00:02:00;;;;;;;0.38;0.20;;;16.00;99.90;;;;;;5044838;28;20021;-69
2022/06/11 00:04:29;;;;;;;0.70;0.20;;;15.90;99.90;;;;;;5042659;28;20029;-68
2022/06/11 00:07:00;;;;;;;0.50;0.20;;;15.80;99.90;;;;;;5044767;28;20030;-69
2022/06/11 00:09:27;;;;;;;0.50;0.20;;;15.80;99.90;;;;;;5043299;28;20037;-68
2022/06/11 00:11:52;;;;;;;0.50;0.20;;;15.80;99.90;;;;;;5043841;28;20072;-68
2022/06/11 00:14:21;;;;;;;0.70;0.35;;;15.80;99.90;;;;;;5044179;28;20428;-68
2022/06/11 00:16:47;;;;;;;0.50;0.20;;;15.70;99.90;;;;;;5041350;28;20030;-69
2022/06/11 00:19:13;;;;;;;0.68;0.25;;;15.60;99.90;;;;;;5044605;28;20033;-69
2022/06/11 00:21:41;;;;;;;1.10;0.93;;;15.60;99.90;;;;;;5042326;28;20048;-68
2022/06/11 00:24:08;;;;;;;0.45;0.20;;;15.60;99.90;;;;;;5044219;28;20021;-68
2022/06/11 00:26:34;;;;;;;0.28;0.20;;;15.50;99.90;;;;;;5042545;28;20059;-68
2022/06/11 00:29:00;;;;;;;0.63;0.25;;;15.50;99.90;;;;;;5043119;28;20057;-68
2022/06/11 00:31:26;;;;;;;0.38;0.20;;;15.40;99.90;;;;;;5043861;28;20018;-67
2022/06/11 00:33:52;;;;;;;0.70;0.22;;;15.30;99.90;;;;;;5042713;28;20033;-68
2022/06/11 00:36:18;;;;;;;0.30;0.20;;;15.20;99.90;;;;;;5043144;28;20041;-69
2022/06/11 00:38:45;;;;;;;0.65;0.22;;;15.10;99.90;;;;;;5040518;28;20052;-68
2022/06/11 00:41:11;;;;;;;0.70;0.28;;;15.10;99.90;;;;;;5044029;28;20439;-69
2022/06/11 00:43:39;;;;;;;0.50;0.28;;;15.00;99.90;;;;;;5042496;28;20528;-68
2022/06/11 00:46:38;;;;;;;0.82;0.43;;;15.00;99.90;;;;;;5043118;28;20049;-68
2022/06/11 00:49:11;;;;;;;0.28;0.17;;;14.80;99.90;;;;;;5043993;28;20051;-68
2022/06/11 00:51:38;;;;;;;0.32;0.20;;;14.80;99.90;;;;;;5041084;28;20031;-68
2022/06/11 00:54:08;;;;;;;0.40;0.20;;;14.80;99.90;;;;;;5043823;28;20025;-68
2022/06/11 00:56:40;;;;;;;0.85;0.45;;;14.70;99.90;;;;;;5041864;28;20013;-69
2022/06/11 00:59:10;;;;;;;0.30;0.20;;;14.70;99.90;;;;;;5042735;28;20037;-68
2022/06/11 01:01:36;;;;;;;0.32;0.20;;;14.80;99.90;;;;;;5043527;28;20025;-68
2022/06/11 01:04:23;;;;;;;0.10;0.10;;;14.80;99.90;;;;;;5041761;28;20025;-68
2022/06/11 01:06:56;;;;;;;0.47;0.20;;;14.90;99.90;;;;;;5043276;28;20079;-66
2022/06/11 01:09:35;;;;;;;0.65;0.28;;;14.90;99.90;;;;;;5042116;28;20048;-66
2022/06/11 01:12:16;;;;;;;0.80;0.30;;;14.90;99.90;;;;;;5042493;28;20029;-66
2022/06/11 01:15:06;;;;;;;1.08;0.47;;;15.00;99.90;;;;;;5043443;28;20029;-67
2022/06/11 01:17:42;;;;;;;0.50;0.30;;;14.90;99.90;;;;;;5041621;28;20079;-67
2022/06/11 01:20:33;;;;;;;0.57;0.20;;;14.80;99.90;;;;;;5043010;28;20052;-68
2022/06/11 01:23:23;;;;;;;0.65;0.30;;;14.80;99.90;;;;;;5043196;28;20085;-69
2022/06/11 01:26:07;;;;;;;1.17;0.45;;;14.70;99.90;;;;;;5041086;28;20025;-69
2022/06/11 01:28:36;;;;;;;0.75;0.30;;;14.60;99.90;;;;;;5042758;28;20425;-69
2022/06/11 01:31:28;;;;;;;0.52;0.30;;;14.60;99.90;;;;;;5042274;28;20029;-68
2022/06/11 01:34:09;;;;;;;0.52;0.20;;;14.50;99.90;;;;;;5038132;28;20061;-68
2022/06/11 01:36:39;;;;;;;0.30;0.20;;;14.60;99.90;;;;;;5043080;28;20029;-68
2022/06/11 01:39:11;;;;;;;0.47;0.20;;;14.60;99.90;;;;;;5041167;28;20033;-68
2022/06/11 01:42:08;;;;;;;;;;;14.60;99.90;;;;;;5042867;28;20101;-68
2022/06/11 01:44:40;;;;;;;0.70;0.30;;;14.70;99.90;;;;;;5008471;28;19912;-67
2022/06/11 01:47:07;;;;;;;0.57;0.20;;;14.70;99.90;;;;;;5040792;28;20029;-68
2022/06/11 01:49:37;;;;;;;0.82;0.35;;;14.70;99.90;;;;;;5042824;28;20095;-68
2022/06/11 01:52:24;;;;;;;0.60;0.30;;;14.60;99.90;;;;;;5039943;28;20028;-68
2022/06/11 01:55:39;;;;;;;0.30;0.20;;;14.60;99.90;;;;;;5041696;28;20017;-68
2022/06/11 01:58:23;;;;;;;0.28;0.20;;;14.60;99.90;;;;;;5030140;28;20080;-68
2022/06/11 02:01:13;;;;;;;0.47;0.20;;;14.60;99.90;;;;;;5041180;28;20044;-68
2022/06/11 02:04:13;;;;;;;0.93;0.57;;;14.60;99.90;;;;;;5040823;28;20048;-68
2022/06/11 02:06:47;;;;;;;0.40;0.20;;;14.60;99.90;;;;;;5033512;28;20045;-68
2022/06/11 02:09:41;;;;;;;0.45;0.20;;;14.70;99.90;;;;;;5041164;28;20032;-69
2022/06/11 02:12:20;;;;;;;0.75;0.30;;;14.60;99.90;;;;;;5041448;28;20033;-68
2022/06/11 02:15:21;;;;;;;5.00;0.47;;;14.70;99.90;;;;;;5042497;28;20029;-68
2022/06/11 02:17:53;;;;;;;0.63;0.20;;;14.70;99.90;;;;;;5022074;28;20045;-68
2022/06/11 02:20:24;;;;;;;0.57;0.43;;;14.70;99.90;;;;;;5041611;28;20025;-68
2022/06/11 02:23:08;;;;;;;1.17;0.40;;;14.70;99.90;;;;;;5041891;28;20081;-68
2022/06/11 02:25:42;;;;;;;0.73;0.30;;;14.70;99.90;;;;;;5039662;28;20089;-68
2022/06/11 02:28:11;;;;;;;3.67;0.57;;;14.70;99.90;;;;;;5042104;28;20109;-68
2022/06/11 02:30:39;;;;;;;0.68;0.30;;;14.70;99.90;;;;;;5040638;28;20018;-68
2022/06/11 02:33:12;;;;;;;0.73;0.35;;;14.70;99.90;;;;;;5041607;28;20081;-68
2022/06/11 02:35:46;;;;;;;0.60;0.30;;;14.70;99.90;;;;;;5040227;28;20079;-67
2022/06/11 02:38:17;;;;;;;0.55;0.25;;;14.70;99.90;;;;;;5040090;28;20049;-67
2022/06/11 02:40:52;;;;;;;0.47;0.32;;;14.70;99.90;;;;;;5041988;28;20017;-67
2022/06/11 02:43:19;;;;;;;0.70;0.40;;;14.70;99.90;;;;;;5038772;28;20025;-67
2022/06/11 02:45:46;;;;;;;0.60;0.28;;;14.70;99.90;;;;;;5041455;28;20036;-67
2022/06/11 02:48:13;;;;;;;3.20;1.25;;;14.60;99.90;;;;;;5040862;28;20029;-68
2022/06/11 02:50:40;;;;;;;1.15;0.63;;;14.60;99.90;;;;;;5039075;28;20037;-67
2022/06/11 02:53:07;;;;;;;0.38;0.20;;;14.50;99.90;;;;;;5041796;28;20032;-67
2022/06/11 02:55:34;;;;;;;1.65;0.73;;;14.50;99.90;;;;;;5039344;28;20025;-68
2022/06/11 02:58:00;;;;;;;0.98;0.50;;;14.50;99.90;;;;;;5041791;28;20128;-67
2022/06/11 03:00:30;;;;;;;1.25;0.50;;;14.50;99.90;;;;;;5040044;28;20049;-67
2022/06/11 03:02:56;;;;;;;0.63;0.20;;;14.60;99.90;;;;;;5041299;28;20021;-67
2022/06/11 03:05:25;;;;;;;0.40;0.20;;;14.50;99.90;;;;;;5040804;28;20338;-67
2022/06/11 03:07:52;;;;;;;2.45;0.60;;;14.50;99.90;;;;;;5040566;28;20053;-67
2022/06/11 03:10:20;;;;;;;0.82;0.32;;;14.50;99.90;;;;;;5041690;28;20105;-67
2022/06/11 03:12:45;;;;;;;0.80;0.50;;;14.50;99.90;;;;;;5038185;28;20029;-67
2022/06/11 03:15:13;;;;;;;0.47;0.22;;;14.40;99.90;;;;;;5042639;28;20057;-67
2022/06/11 03:17:39;;;;;;;0.55;0.22;;;14.40;99.90;;;;;;5044057;28;20477;-66
2022/06/11 03:20:06;;;;;;;0.52;0.40;;;14.40;99.90;;;;;;5043864;28;20067;-67
2022/06/11 03:22:32;;;;;;;0.75;0.47;;;14.40;99.90;;;;;;5044599;28;20025;-67
2022/06/11 03:24:58;;;;;;;0.40;0.20;;;14.50;99.90;;;;;;5044182;28;20057;-67
2022/06/11 03:27:23;;;;;;;0.60;0.30;;;14.40;99.90;;;;;;5043382;28;20049;-66
2022/06/11 03:29:50;;;;;;;1.42;0.73;;;14.40;99.90;;;;;;5043500;28;20465;-68
2022/06/11 03:32:17;;;;;;;2.10;0.93;;;14.40;99.90;;;;;;5045299;28;20053;-68
2022/06/11 03:34:43;;;;;;;0.20;0.20;;;14.40;99.90;;;;;;5042258;28;20038;-68
2022/06/11 03:37:09;;;;;;;0.88;0.30;;;14.40;99.90;;;;;;5045042;28;20028;-67
2022/06/11 03:39:35;;;;;;;0.98;0.68;;;14.40;99.90;;;;;;5042960;28;20057;-68
2022/06/11 03:42:01;;;;;;;0.63;0.30;;;14.50;99.90;;;;;;5044197;28;20096;-68
2022/06/11 03:44:27;;;;;;;0.13;0.13;;;14.50;99.90;;;;;;5045259;28;20033;-68
2022/06/11 03:46:53;;;;;;;0.82;0.40;;;14.50;99.90;;;;;;5043289;28;20073;-68
2022/06/11 03:49:19;;;;;;;0.98;0.55;;;14.50;99.90;;;;;;5045112;28;20026;-67
2022/06/11 03:51:46;;;;;;;0.47;0.20;;;14.50;99.90;;;;;;5043188;28;20026;-69
2022/06/11 03:54:12;;;;;;;1.02;0.63;;;14.50;99.90;;;;;;5044787;28;20116;-68
2022/06/11 03:56:40;;;;;;;0.80;0.30;;;14.60;99.90;;;;;;5043493;28;20025;-68
2022/06/11 03:59:07;;;;;;;1.38;0.50;;;14.50;99.90;;;;;;5042254;28;20047;-68
2022/06/11 04:01:33;;;;;;;0.85;0.30;;;14.50;99.90;;;;;;5044584;28;20025;-68
2022/06/11 04:04:07;;;;;;;1.00;0.47;;;14.50;99.90;;;;;;5043063;28;20175;-68
2022/06/11 04:06:56;;;;;;;1.17;0.50;;;14.50;99.90;;;;;;5043592;28;20017;-68
2022/06/11 04:09:25;;;;;;;0.68;0.30;;;14.40;99.90;;;;;;5043390;28;20044;-68
2022/06/11 04:11:51;;;;;;;0.90;0.30;;;14.40;99.90;;;;;;5043876;28;20033;-68
2022/06/11 04:14:17;;;;;;;1.02;0.40;;;14.40;99.90;;;;;;5044335;28;20093;-68
2022/06/11 04:16:45;;;;;;;0.65;0.30;;;14.40;99.90;;;;;;5042792;28;20025;-68
2022/06/11 04:19:19;;;;;;;0.57;0.40;;;14.40;99.90;;;;;;5044499;28;20038;-68
2022/06/11 04:21:47;;;;;;;0.65;0.28;;;14.40;99.90;;;;;;5042662;28;20029;-67
2022/06/11 04:24:13;;;;;;;0.50;0.30;;;14.50;99.90;;;;;;5043984;28;20021;-67
2022/06/11 04:26:44;;;;;;;0.50;0.30;;;14.50;99.90;;;;;;5042775;28;20068;-68
2022/06/11 04:29:13;;;;;;;0.40;0.20;;;14.50;99.90;;;;;;5043189;28;20056;-68
2022/06/11 04:31:39;;;;;;;0.50;0.30;;;14.50;99.90;;;;;;5044193;28;20022;-68
2022/06/11 04:34:05;;;;;;;0.68;0.43;;;14.60;99.90;;;;;;5042293;28;20037;-68
2022/06/11 04:36:34;;;;;;;0.52;0.20;;;14.60;99.90;;;;;;5044520;28;20101;-68
2022/06/11 04:38:59;;;;;;;1.10;0.60;;;14.60;99.90;;;;;;5042422;28;20033;-68
2022/06/11 04:41:27;;;;;;;0.98;0.30;;;14.60;99.90;;;;;;5043764;28;20135;-68
2022/06/11 04:43:53;;;;;;;1.00;0.32;;;14.70;99.90;;;;;;5043052;28;20045;-67
2022/06/11 04:46:19;;;;;;;0.90;0.40;;;14.70;99.90;;;;;;5041513;28;20041;-67
2022/06/11 04:48:45;;;;;;;0.98;0.30;;;14.70;99.90;;;;;;5043868;28;20025;-68
2022/06/11 04:51:11;;;;;;;1.25;0.47;;;14.70;99.90;;;;;;5041921;28;20026;-67
2022/06/11 04:53:38;;;;;;;1.20;0.35;;;14.70;99.90;;;;;;5043866;28;20017;-68
2022/06/11 04:56:04;;;;;;;0.80;0.30;;;14.80;99.90;;;;;;5041573;28;20028;-67
2022/06/11 04:58:29;;;;;;;1.13;0.40;;;14.90;99.90;;;;;;5043298;28;20128;-67
2022/06/11 05:00:55;;;;;;;5.38;0.75;;;15.00;99.90;;;;;;5042658;28;20030;-67
2022/06/11 05:03:21;;;;;;;0.80;0.43;;;15.00;99.90;;;;;;5042651;28;20060;-67
2022/06/11 05:05:47;;;;;;;0.35;0.35;;;15.10;99.90;;;;;;5043436;28;20026;-67
2022/06/11 05:08:15;;;;;;;1.20;0.57;;;15.20;99.90;;;;;;5041759;28;20025;-67
2022/06/11 05:10:42;;;;;;;0.85;0.40;;;15.20;99.90;;;;;;5043662;28;20100;-68
2022/06/11 05:13:09;;;;;;;0.68;0.30;;;15.30;99.90;;;;;;5041365;28;20021;-67
2022/06/11 05:15:40;;;;;;;0.40;0.20;;;15.40;99.90;;;;;;5043217;28;20022;-68
2022/06/11 05:18:06;;;;;;;0.77;0.30;;;15.50;99.90;;;;;;5042278;28;20042;-68
2022/06/11 05:20:31;;;;;;;0.47;0.20;;;15.60;99.90;;;;;;5042132;28;20035;-67
2022/06/11 05:22:57;;;;;;;0.80;0.30;;;15.70;99.90;;;;;;5043066;28;20053;-67
2022/06/11 05:25:23;;;;;;;0.65;0.40;;;15.80;99.90;;;;;;5040840;28;20045;-68
2022/06/11 05:27:49;;;;;;;1.13;0.57;;;15.80;99.90;;;;;;5043169;28;20061;-67
2022/06/11 05:30:27;;;;;;;0.30;0.20;;;15.90;99.90;;;;;;5041259;28;20025;-68
2022/06/11 05:32:53;;;;;;;0.50;0.20;;;16.00;99.90;;;;;;5042646;28;20025;-68
2022/06/11 05:35:25;;;;;;;0.90;0.30;;;16.10;99.90;;;;;;5042268;28;20025;-67
2022/06/11 05:37:57;;;;;;;0.80;0.30;;;16.20;99.90;;;;;;5041026;28;20072;-68
2022/06/11 05:40:26;;;;;;;0.60;0.20;;;16.40;99.90;;;;;;5042984;28;20536;-67
2022/06/11 05:42:52;;;;;;;0.57;0.20;;;16.50;99.90;;;;;;5040989;28;20096;-67
2022/06/11 05:45:26;;;;;;;0.63;0.28;;;16.60;99.90;;;;;;5042724;28;20026;-67
2022/06/11 05:47:53;;;;;;;0.95;0.30;;;16.70;99.90;;;;;;5041502;28;20022;-67
2022/06/11 05:50:24;;;;;;;0.52;0.20;;;16.90;99.90;;;;;;5041920;28;20465;-67
2022/06/11 05:52:52;;;;;;;0.40;0.20;;;17.00;99.90;;;;;;5042363;28;20081;-67
2022/06/11 05:55:22;;;;;;;0.57;0.20;;;17.10;99.90;;;;;;5040608;28;20032;-67
2022/06/11 05:57:50;;;;;;;0.95;0.40;;;17.40;99.90;;;;;;5042663;28;20037;-67
2022/06/11 06:00:19;;;;;;;0.10;0.10;;;17.50;99.90;;;;;;5040893;28;20493;-67
2022/06/11 06:02:45;;;;;;;0.90;0.20;;;17.60;99.90;;;;;;5042281;28;20022;-67
2022/06/11 06:05:14;;;;;;;1.02;0.50;;;17.60;99.90;;;;;;5041339;28;20022;-67
2022/06/11 06:07:40;;;;;;;0.43;0.30;;;17.80;99.90;;;;;;5039928;28;20056;-67
2022/06/11 06:10:06;;;;;;;0.65;0.30;;;17.90;99.90;;;;;;5042298;28;20021;-67
2022/06/11 06:12:36;;;;;;;0.65;0.30;;;18.10;99.90;;;;;;5040273;28;20106;-67
2022/06/11 06:15:11;;;;;;;0.38;0.20;;;18.30;99.90;;;;;;5042562;28;20412;-67
2022/06/11 06:17:37;;;;;;;0.80;0.40;;;18.40;99.90;;;;;;5040596;28;20081;-67
2022/06/11 06:20:05;;;;;;;1.05;0.52;;;18.40;99.90;;;;;;5041708;28;20091;-67
2022/06/11 06:22:31;;;;;;;0.57;0.20;;;18.50;99.90;;;;;;5040279;28;20044;-68
2022/06/11 06:24:57;;;;;;;1.10;0.30;;;18.70;99.90;;;;;;5040750;28;20022;-67
2022/06/11 06:27:22;;;;;;;0.60;0.30;;;18.70;99.90;;;;;;5041651;28;20097;-68
2022/06/11 06:29:48;;;;;;;0.77;0.40;;;18.80;99.90;;;;;;5040285;28;20025;-67
2022/06/11 06:32:14;;;;;;;0.68;0.22;;;18.90;99.90;;;;;;5042292;28;20083;-68
2022/06/11 06:34:40;;;;;;;0.17;0.10;;;18.90;99.90;;;;;;5038910;28;20025;-68
2022/06/11 06:37:06;;;;;;;0.73;0.38;;;19.20;99.90;;;;;;5041642;28;20032;-69
2022/06/11 06:39:32;;;;;;;0.15;0.10;;;19.30;99.90;;;;;;5040988;28;20103;-68
2022/06/11 06:41:58;;;;;;;1.35;0.45;;;19.70;99.90;;;;;;5040826;28;20061;-67
2022/06/11 06:44:24;;;;;;;1.60;0.65;;;19.60;99.90;;;;;;5040569;28;20026;-68
2022/06/11 06:46:50;;;;;;;0.13;0.10;;;19.90;99.90;;;;;;5039833;28;20072;-68
2022/06/11 06:49:16;;;;;;;0.65;0.30;;;19.70;99.90;;;;;;5041515;28;20438;-68
2022/06/11 06:51:42;;;;;;;3.20;0.55;;;19.60;99.90;;;;;;5039642;28;20412;-68
2022/06/11 06:54:08;;;;;;;0.93;0.57;;;19.70;99.90;;;;;;5041604;28;20097;-67
2022/06/11 06:56:34;;;;;;;0.47;0.20;;;20.00;99.90;;;;;;5040280;28;20029;-68
2022/06/11 06:59:01;;;;;;;1.23;0.68;;;20.20;99.90;;;;;;5040529;28;20045;-69
2022/06/11 07:01:28;;;;;;;0.10;0.10;;;20.20;99.90;;;;;;5041508;28;20052;-69
2022/06/11 07:03:54;;;;;;;0.38;0.20;;;20.20;99.90;;;;;;5039746;28;20022;-69
2022/06/11 07:06:21;;;;;;;0.47;0.40;;;20.10;99.90;;;;;;5041657;28;20064;-69
2022/06/11 07:08:52;;;;;;;0.47;0.38;;;20.50;99.90;;;;;;5039864;28;20044;-69
2022/06/11 07:11:18;;;;;;;0.10;0.10;;;20.70;99.90;;;;;;5041369;28;20030;-68
2022/06/11 07:13:44;;;;;;;0.60;0.28;;;20.70;99.90;;;;;;5040619;28;20037;-68
2022/06/11 07:16:13;;;;;;;0.10;0.10;;;21.20;99.90;;;;;;5040511;28;20428;-68
2022/06/11 07:18:47;;;;;;;0.77;0.28;;;21.40;99.90;;;;;;5041319;28;20060;-68
2022/06/11 07:21:19;;;;;;;1.70;0.40;;;21.50;99.90;;;;;;5039369;28;20026;-68
2022/06/11 07:23:55;;;;;;;0.20;0.10;;;21.50;99.90;;;;;;5041454;28;20048;-68
2022/06/11 07:26:26;;;;;;;0.35;0.35;;;21.50;99.90;;;;;;5039667;28;20026;-68
2022/06/11 07:28:57;;;;;;;0.77;0.65;;;21.80;99.90;;;;;;5040643;28;20041;-67
2022/06/11 07:31:24;;;;;;;0.30;0.10;;;22.20;99.90;;;;;;5041171;28;20018;-67
2022/06/11 07:33:49;;;;;;;0.28;0.20;;;22.20;99.90;;;;;;5039821;28;20049;-67
2022/06/11 07:36:17;;;;;;;0.32;0.17;;;22.20;99.90;;;;;;5040288;28;20017;-67
2022/06/11 07:38:43;;;;;;;0.10;0.10;;;22.00;99.90;;;;;;5039447;28;20064;-67
2022/06/11 07:41:09;;;;;;;0.17;0.10;;;22.10;99.90;;;;;;5041232;28;20454;-67
2022/06/11 07:43:34;;;;;;;0.45;0.45;;;21.90;99.90;;;;;;5040345;28;20113;-68
2022/06/11 07:46:01;;;;;;;0.10;0.10;;;22.30;99.90;;;;;;5040440;28;20026;-67
2022/06/11 07:48:27;;;;;;;0.52;0.30;;;22.40;99.90;;;;;;5042894;28;20046;-67
2022/06/11 07:50:53;;;;;;;0.28;0.10;;;21.80;99.90;;;;;;5041635;28;20053;-70
2022/06/11 07:53:20;;;;;;;0.10;0.10;;;22.10;99.90;;;;;;5041770;28;20017;-68
2022/06/11 07:55:47;;;;;;;0.63;0.32;;;22.20;99.90;;;;;;5038867;28;20018;-68
2022/06/11 07:58:16;;;;;;;1.45;0.47;;;22.20;99.90;;;;;;5040998;28;20029;-67
2022/06/11 08:00:45;;;;;;;0.00;0.00;;;22.40;99.90;;;;;;5040003;28;20077;-67
2022/06/11 08:03:11;;;;;;;0.43;0.28;;;22.70;99.90;;;;;;5044285;28;20014;-67
2022/06/11 08:05:37;;;;;;;0.10;0.10;;;23.30;99.90;;;;;;5044852;28;20045;-68
2022/06/11 08:08:04;;;;;;;0.65;0.30;;;23.30;99.90;;;;;;5043049;28;20048;-68
2022/06/11 08:10:30;;;;;;;0.05;0.00;;;23.40;99.90;;;;;;5044660;28;20041;-68
2022/06/11 08:12:56;;;;;;;0.22;0.17;;;23.20;99.90;;;;;;5042721;28;20030;-68
2022/06/11 08:15:22;;;;;;;0.00;0.00;;;23.80;99.90;;;;;;5043153;28;20056;-68
2022/06/11 08:17:48;;;;;;;0.30;0.20;;;23.70;99.90;;;;;;5043127;28;20045;-68
2022/06/11 08:20:20;;;;;;;0.10;0.10;;;23.70;99.90;;;;;;5043723;28;20176;-68
2022/06/11 08:22:46;;;;;;;0.10;0.10;;;24.00;99.90;;;;;;5044129;28;20071;-68
2022/06/11 08:25:12;;;;;;;0.10;0.10;;;23.80;99.90;;;;;;5042672;28;20057;-69
2022/06/11 08:27:38;;;;;;;0.10;0.10;;;24.20;99.90;;;;;;5043745;28;20569;-68
2022/06/11 08:30:04;;;;;;;0.10;0.10;;;24.90;99.90;;;;;;5042484;28;20026;-69
2022/06/11 08:32:30;;;;;;;0.10;0.10;;;24.50;99.90;;;;;;5044022;28;20087;-69
2022/06/11 08:34:56;;;;;;;1.55;0.35;;;24.20;99.90;;;;;;5041559;28;20033;-68
2022/06/11 08:37:23;;;;;;;0.35;0.32;;;24.20;99.90;;;;;;5041964;28;20029;-69
2022/06/11 08:39:49;;;;;;;0.10;0.10;;;24.80;99.90;;;;;;5043589;28;20048;-68
2022/06/11 08:42:36;;;;;;;0.25;0.20;;;24.70;99.90;;;;;;5042527;28;20030;-69
2022/06/11 08:45:23;;;;;;;0.10;0.10;;;24.40;99.90;;;;;;5044033;28;20041;-66
2022/06/11 08:47:54;;;;;;;0.17;0.10;;;25.30;99.90;;;;;;5042657;28;20045;-66
2022/06/11 08:50:30;;;;;;;0.00;0.00;;;24.90;97.80;;;;;;5042894;28;20094;-67
2022/06/11 08:52:56;;;;;;;0.10;0.10;;;24.90;97.90;;;;;;5043759;28;20094;-68
2022/06/11 08:55:25;;;;;;;1.27;0.20;;;25.20;97.40;;;;;;5041793;28;20030;-68
2022/06/11 08:58:09;;;;;;;0.00;0.00;;;25.10;95.60;;;;;;5043807;28;20711;-68
2022/06/11 09:00:47;;;;;;;0.20;0.10;;;25.00;97.90;;;;;;5042242;28;20022;-68
2022/06/11 09:03:20;;;;;;;0.10;0.10;;;24.20;99.20;;;;;;5042752;28;20075;-68
2022/06/11 09:05:57;;;;;;;0.00;0.00;;;23.90;99.90;;;;;;5043611;28;20053;-68
2022/06/11 09:08:39;;;;;;;0.00;0.00;;;23.10;99.10;;;;;;5041313;28;20037;-67
2022/06/11 09:11:21;;;;;;;0.10;0.10;;;23.40;99.90;;;;;;5043543;28;20032;-68
2022/06/11 09:13:59;;;;;;;0.17;0.10;;;24.00;99.90;;;;;;5041823;28;20021;-68
2022/06/11 09:16:51;;;;;;;0.10;0.10;;;24.30;99.90;;;;;;5041882;28;20034;-68
2022/06/11 09:19:32;;;;;;;0.10;0.10;;;24.20;90.40;;;;;;5043396;28;20041;-68
2022/06/11 09:22:20;;;;;;;0.10;0.10;;;24.60;96.80;;;;;;5041686;28;20030;-67
2022/06/11 09:25:17;;;;;;;0.47;0.43;;;24.70;92.80;;;;;;5042117;28;20026;-68
2022/06/11 09:27:48;;;;;;;0.60;0.25;;;25.40;92.20;;;;;;5042435;28;20049;-68
2022/06/11 09:30:25;;;;;;;0.45;0.30;;;25.20;67.70;;;;;;5041400;28;20056;-67
2022/06/11 09:33:11;;;;;;;0.17;0.10;;;25.40;72.90;;;;;;5042534;28;20037;-68
2022/06/11 09:35:53;;;;;;;0.00;0.00;;;26.50;84.80;;;;;;5042763;28;20053;-68
2022/06/11 09:38:41;;;;;;;0.10;0.10;;;26.20;67.90;;;;;;5040869;28;20053;-68
2022/06/11 09:41:25;;;;;;;0.10;0.10;;;26.60;65.40;;;;;;5042689;28;20026;-68
2022/06/11 09:43:56;;;;;;;0.52;0.40;;;26.00;61.40;;;;;;5042166;28;20018;-67
2022/06/11 09:46:55;;;;;;;0.00;0.00;;;26.00;62.20;;;;;;5041231;28;20029;-68
2022/06/11 09:49:29;;;;;;;0.00;0.00;;;26.30;60.40;;;;;;5042914;28;20064;-68
2022/06/11 09:52:20;;;;;;;0.00;0.00;;;26.20;59.10;;;;;;5041373;28;20026;-68
2022/06/11 09:55:10;;;;;;;0.10;0.00;;;26.60;57.80;;;;;;5041346;28;20036;-68
2022/06/11 09:57:54;;;;;;;0.10;0.10;;;25.50;58.40;;;;;;5042364;28;20027;-69
2022/06/11 10:00:29;;;;;;;0.30;0.20;;;25.60;62.80;;;;;;5041049;28;20480;-67
2022/06/11 10:03:22;;;;;;;0.10;0.10;;;25.10;60.00;;;;;;5040374;28;20017;-69
2022/06/11 10:06:09;;;;;;;0.43;0.20;;;25.10;60.50;;;;;;5042661;28;20081;-68
2022/06/11 10:08:58;;;;;;;0.00;0.00;;;24.60;61.90;;;;;;5040419;28;20021;-68
2022/06/11 10:11:44;;;;;;;0.00;0.00;;;24.40;59.90;;;;;;5040599;28;20048;-68
2022/06/11 10:14:30;;;;;;;0.25;0.25;;;24.40;63.40;;;;;;5042197;28;20112;-68
2022/06/11 10:17:15;;;;;;;0.00;0.00;;;24.40;63.30;;;;;;5040328;28;20048;-68
2022/06/11 10:19:54;;;;;;;0.10;0.10;;;23.80;63.70;;;;;;5042103;28;20030;-68
2022/06/11 10:22:23;;;;;;;0.10;0.10;;;23.90;71.80;;;;;;5041506;28;20032;-68
2022/06/11 10:25:22;;;;;;;0.10;0.10;;;24.50;66.10;;;;;;5040728;28;20060;-68
2022/06/11 10:28:09;;;;;;;0.10;0.10;;;24.20;61.70;;;;;;5040457;28;20054;-69
2022/06/11 10:30:56;;;;;;;0.10;0.10;;;24.20;65.70;;;;;;5040764;28;20026;-69
2022/06/11 10:33:48;;;;;;;0.03;0.00;;;24.60;66.90;;;;;;5039341;28;20025;-67
2022/06/11 10:36:44;;;;;;;0.10;0.10;;;25.00;67.70;;;;;;5042088;28;20036;-67
2022/06/11 10:39:22;;;;;;;0.05;0.05;;;24.30;59.60;;;;;;5040777;28;20037;-68
2022/06/11 10:41:56;;;;;;;0.00;0.00;;;24.50;66.70;;;;;;5040716;28;20033;-68
2022/06/11 10:44:36;;;;;;;0.43;0.40;;;23.80;64.70;;;;;;5041927;28;20021;-68
2022/06/11 10:47:23;;;;;;;0.03;0.03;;;23.70;62.50;;;;;;5040081;28;20028;-69
2022/06/11 10:50:09;;;;;;;0.08;0.08;;;24.10;61.20;;;;;;5040113;28;20040;-68
2022/06/11 10:52:44;;;;;;;0.10;0.10;;;23.60;63.60;;;;;;5041319;28;20116;-69
2022/06/11 10:55:16;;;;;;;2.63;0.68;;;23.90;64.30;;;;;;5039846;28;20033;-68
2022/06/11 10:57:43;;;;;;;0.10;0.10;;;24.40;63.30;;;;;;5041387;28;20465;-68
2022/06/11 11:00:15;;;;;;;0.10;0.10;;;23.90;62.50;;;;;;5039985;28;20025;-68
2022/06/11 11:02:46;;;;;;;0.20;0.10;;;24.60;68.20;;;;;;5041179;28;20025;-68
2022/06/11 11:05:15;;;;;;;0.00;0.00;;;25.40;66.70;;;;;;5041004;28;20044;-69
2022/06/11 11:07:56;;;;;;;0.22;0.22;;;25.00;56.50;;;;;;5040060;28;20022;-68
2022/06/11 11:10:49;;;;;;;0.00;0.00;;;25.30;57.50;;;;;;5041734;28;20033;-69
2022/06/11 11:13:36;;;;;;;0.77;0.55;;;26.20;57.60;;;;;;5040120;28;20032;-69
2022/06/11 11:16:21;;;;;;;0.15;0.08;;;26.50;55.10;;;;;;5040601;28;20030;-69
2022/06/11 11:19:05;;;;;;;0.20;0.10;;;26.90;53.10;;;;;;5041469;28;20032;-69
2022/06/11 11:21:39;;;;;;;0.00;0.00;;;26.70;54.80;;;;;;5039480;28;20030;-70
2022/06/11 11:24:10;;;;;;;0.47;0.35;;;27.50;56.90;;;;;;5041088;28;20021;-69
2022/06/11 11:26:41;;;;;;;0.30;0.30;;;26.60;51.30;;;;;;5040193;28;20026;-69
2022/06/11 11:29:15;;;;;;;0.00;0.00;;;26.80;54.20;;;;;;5039888;28;20048;-69
2022/06/11 11:32:07;;;;;;;0.10;0.10;;;26.70;52.50;;;;;;5041658;28;20093;-69
2022/06/11 11:34:46;;;;;;;0.10;0.10;;;27.00;54.60;;;;;;5039845;28;20025;-69
2022/06/11 11:37:12;;;;;;;0.00;0.00;;;27.10;52.30;;;;;;5043272;28;20358;-70
2022/06/11 11:39:37;;;;;;;0.08;0.00;;;27.50;53.80;;;;;;5044668;28;20036;-70
2022/06/11 11:42:06;;;;;;;0.00;0.00;;;26.90;50.80;;;;;;5043547;28;20068;-69
2022/06/11 11:44:41;;;;;;;0.00;0.00;;;26.80;51.20;;;;;;5045257;28;20029;-70
2022/06/11 11:47:26;;;;;;;0.20;0.20;;;26.90;51.60;;;;;;5043207;28;20018;-70
2022/06/11 11:49:57;;;;;;;0.15;0.00;;;26.80;51.70;;;;;;5044551;28;20025;-70
2022/06/11 11:52:25;;;;;;;0.00;0.00;;;26.70;51.10;;;;;;5044531;28;20013;-70
2022/06/11 11:54:54;;;;;;;0.40;0.40;;;26.70;51.40;;;;;;5043398;28;20053;-70
2022/06/11 11:57:20;;;;;;;0.08;0.05;;;26.90;51.90;;;;;;5044613;28;20052;-70
2022/06/11 11:59:48;;;;;;;0.00;0.00;;;26.60;52.10;;;;;;5042622;28;20057;-70
2022/06/11 12:02:19;;;;;;;0.20;0.10;;;26.90;53.40;;;;;;5044817;28;20025;-69
2022/06/11 12:04:50;;;;;;;0.00;0.00;;;26.50;51.20;;;;;;5042080;28;20596;-69
2022/06/11 12:07:21;;;;;;;0.45;0.45;;;26.10;52.30;;;;;;5043935;28;20033;-69
2022/06/11 12:09:52;;;;;;;0.00;0.00;;;26.50;53.60;;;;;;5044211;28;20036;-70
2022/06/11 12:12:18;;;;;;;0.00;0.00;;;26.20;51.10;;;;;;5042754;28;20056;-69
2022/06/11 12:14:51;;;;;;;0.20;0.10;;;27.20;55.30;;;;;;5044933;28;20044;-68
2022/06/11 12:17:24;;;;;;;0.00;0.00;;;27.10;50.60;;;;;;5042706;28;20089;-69
2022/06/11 12:19:58;;;;;;;1.02;0.45;;;26.60;51.50;;;;;;5043873;28;20053;-69
2022/06/11 12:22:34;;;;;;;0.32;0.32;;;26.40;52.10;;;;;;5043699;28;20108;-69
2022/06/11 12:25:02;;;;;;;0.00;0.00;;;26.70;53.30;;;;;;5042683;28;20014;-69
2022/06/11 12:27:39;;;;;;;0.00;0.00;;;25.90;52.10;;;;;;5044184;28;20026;-69
2022/06/11 12:30:13;;;;;;;0.10;0.10;;;26.00;53.10;;;;;;5042328;28;20060;-69
2022/06/11 12:32:39;;;;;;;0.00;0.00;;;26.00;54.30;;;;;;5044003;28;20171;-69
2022/06/11 12:35:25;;;;;;;5.38;0.90;;;25.90;52.60;;;;;;5043150;28;20057;-68
2022/06/11 12:38:08;;;;;;;0.00;0.00;;;26.10;53.60;;;;;;5042570;28;20452;-69
2022/06/11 12:41:06;;;;;;;0.00;0.00;;;26.80;56.00;;;;;;5042844;28;20099;-68
2022/06/11 12:43:51;;;;;;;0.00;0.00;;;26.90;54.60;;;;;;5043181;28;20492;-68
2022/06/11 12:46:31;;;;;;;0.10;0.00;;;27.40;54.90;;;;;;5042422;28;20054;-68
2022/06/11 12:49:06;;;;;;;;;;;26.50;51.10;;;;;;5043515;28;20037;-69
2022/06/11 12:52:07;;;;;;;0.10;0.10;;;26.90;52.00;;;;;;5042196;28;19973;-68
2022/06/11 12:54:38;;;;;;;0.20;0.20;;;27.10;50.30;;;;;;5031267;28;20047;-69
2022/06/11 12:57:15;;;;;;;0.00;0.00;;;27.20;53.20;;;;;;5043451;28;20025;-68
2022/06/11 12:59:54;;;;;;;0.15;0.10;;;27.30;50.90;;;;;;5041503;28;20116;-68
2022/06/11 13:02:49;;;;;;;0.05;0.05;;;27.00;50.40;;;;;;5043651;28;20173;-68
2022/06/11 13:05:39;;;;;;;0.00;0.00;;;27.60;52.30;;;;;;5043251;28;20143;-69
2022/06/11 13:08:22;;;;;;;0.00;0.00;;;27.30;51.10;;;;;;5041746;28;20037;-69
2022/06/11 13:11:01;;;;;;;0.10;0.10;;;27.30;51.60;;;;;;5043547;28;20037;-69
2022/06/11 13:13:38;;;;;;;3.63;0.55;;;27.30;54.00;;;;;;5042390;28;20309;-68
2022/06/11 13:16:25;;;;;;;0.10;0.10;;;27.50;53.10;;;;;;5042205;28;20025;-69
2022/06/11 13:19:31;;;;;;;0.20;0.10;;;26.90;51.70;;;;;;5043328;28;20053;-69